createdAt,value
2019-04-23T02:01:38.772Z,15.90
2019-04-23T02:06:40.553Z,15.40
2019-04-23T02:09:12.744Z,15.60
2019-04-23T02:11:42.165Z,15.80
2019-04-23T02:14:16.360Z,15.80
2019-04-23T02:16:45.951Z,16.30
2019-04-23T02:19:21.943Z,16.40
2019-04-23T02:21:55.160Z,16.50
2019-04-23T02:24:24.428Z,16.70
2019-04-23T02:26:50.900Z,16.80
2019-04-23T02:29:36.157Z,16.50
2019-04-23T02:32:02.883Z,16.20
2019-04-23T02:37:13.428Z,16.60
2019-04-23T02:39:53.643Z,16.50
2019-04-23T02:47:19.319Z,16.90
2019-04-23T02:52:18.213Z,17.40
2019-04-23T02:54:59.577Z,17.30
2019-04-23T02:58:21.409Z,17.30
2019-04-23T03:00:08.013Z,17.10
2019-04-23T03:07:26.752Z,16.90
2019-04-23T03:12:27.242Z,17.00
2019-04-23T03:14:59.084Z,17.10
2019-04-23T03:17:36.990Z,17.10
2019-04-23T03:20:18.959Z,17.10
2019-04-23T03:22:56.515Z,16.90
2019-04-23T03:25:31.620Z,16.70
2019-04-23T03:27:51.082Z,16.60
2019-04-23T03:30:49.246Z,16.80
2019-04-23T03:36:10.607Z,17.00
2019-04-23T03:40:46.456Z,16.80
2019-04-23T03:43:06.795Z,16.60
2019-04-23T03:48:16.813Z,16.40
2019-04-23T03:50:40.516Z,16.30
2019-04-23T03:53:14.281Z,16.30
2019-04-23T03:55:49.690Z,16.20
2019-04-23T03:58:18.743Z,16.30
2019-04-23T04:00:51.363Z,17.10
2019-04-23T04:10:54.457Z,17.10
2019-04-23T04:13:22.781Z,16.60
2019-04-23T04:15:55.717Z,16.50
2019-04-23T04:18:31.014Z,16.60
2019-04-23T04:28:28.774Z,16.70
2019-04-23T04:30:54.339Z,16.70
2019-04-23T04:38:42.402Z,16.70
2019-04-23T04:41:02.933Z,16.70
2019-04-23T04:43:58.757Z,16.70
2019-04-23T04:51:31.466Z,15.80
2019-04-23T04:56:16.780Z,15.80
2019-04-23T05:03:29.580Z,15.70
2019-04-23T05:08:51.139Z,16.00
2019-04-23T05:13:45.495Z,16.70
2019-04-23T05:16:17.386Z,17.30
2019-04-23T05:21:21.425Z,17.50
2019-04-23T05:26:25.199Z,17.90
2019-04-23T05:31:23.507Z,17.80
2019-04-23T05:33:52.255Z,18.00
2019-04-23T05:36:28.559Z,18.30
2019-04-23T05:39:01.588Z,18.50
2019-04-23T05:43:55.811Z,18.70
2019-04-23T05:46:37.854Z,18.80
2019-04-23T05:49:03.028Z,18.70
2019-04-23T05:51:40.112Z,18.80
2019-04-23T05:53:58.011Z,18.80
2019-04-23T05:56:32.081Z,18.70
2019-04-23T05:59:06.595Z,18.80
2019-04-23T06:04:10.475Z,18.90
2019-04-23T06:06:45.226Z,18.70
2019-04-23T06:09:12.721Z,18.70
2019-04-23T06:14:11.627Z,19.00
2019-04-23T06:16:43.068Z,19.00
2019-04-23T06:19:14.145Z,19.20
2019-04-23T06:21:54.873Z,19.00
2019-04-23T06:24:24.919Z,19.10
2019-04-23T06:26:45.498Z,19.00
2019-04-23T06:29:20.895Z,18.70
2019-04-23T06:39:15.871Z,18.80
2019-04-23T06:41:51.586Z,18.70
2019-04-23T06:44:28.447Z,18.80
2019-04-23T06:47:03.690Z,19.00
2019-04-23T06:49:32.021Z,19.10
2019-04-23T06:52:10.459Z,18.90
2019-04-23T06:54:35.840Z,19.10
2019-04-23T06:57:15.332Z,19.10
2019-04-23T06:59:34.094Z,19.00
2019-04-23T07:02:06.278Z,18.80
2019-04-23T07:04:43.804Z,19.00
2019-04-23T07:09:36.603Z,19.00
2019-04-23T07:12:07.684Z,19.20
2019-04-23T07:14:45.882Z,19.10
2019-04-23T07:17:18.256Z,19.20
2019-04-23T07:19:44.997Z,19.30
2019-04-23T07:24:42.081Z,19.30
2019-04-23T07:27:18.165Z,19.40
2019-04-23T07:29:55.550Z,19.40
2019-04-23T07:32:11.606Z,19.40
2019-04-23T07:34:49.403Z,19.30
2019-04-23T07:37:17.655Z,19.30
2019-04-23T07:40:21.630Z,19.20
2019-04-23T07:42:39.427Z,19.10
2019-04-23T07:45:09.398Z,19.10
2019-04-23T07:48:09.544Z,18.90
2019-04-23T07:50:39.382Z,18.70
2019-04-23T07:53:05.567Z,18.70
2019-04-23T07:55:43.396Z,18.70
2019-04-23T07:58:18.591Z,18.70
2019-04-23T08:00:44.364Z,18.60
2019-04-23T08:03:14.290Z,18.70
2019-04-23T08:08:09.183Z,18.50
2019-04-23T08:10:46.560Z,18.50
2019-04-23T08:13:15.605Z,18.50
2019-04-23T08:15:42.935Z,18.60
2019-04-23T08:18:16.004Z,18.70
2019-04-23T08:20:45.133Z,18.70
2019-04-23T08:23:29.827Z,18.70
2019-04-23T08:26:19.386Z,18.90
2019-04-23T08:28:52.135Z,18.80
2019-04-23T08:31:16.482Z,18.70
2019-04-23T08:33:49.757Z,18.60
2019-04-23T08:36:23.885Z,18.60
2019-04-23T08:38:44.675Z,18.70
2019-04-23T08:41:29.926Z,18.80
2019-04-23T08:44:08.887Z,18.90
2019-04-23T08:46:56.989Z,19.00
2019-04-23T08:49:29.354Z,19.00
2019-04-23T08:52:03.745Z,19.10
2019-04-23T08:54:36.510Z,19.20
2019-04-23T08:59:33.162Z,19.20
2019-04-23T09:02:18.299Z,19.20
2019-04-23T09:04:35.631Z,19.20
2019-04-23T09:07:04.416Z,19.10
2019-04-23T09:09:34.820Z,19.10
2019-04-23T09:14:31.525Z,19.20
2019-04-23T09:17:11.128Z,19.30
2019-04-23T09:19:42.835Z,19.30
2019-04-23T09:22:14.465Z,19.20
2019-04-23T09:24:44.953Z,19.20
2019-04-23T09:27:15.791Z,19.40
2019-04-23T09:29:45.790Z,19.40
2019-04-23T09:32:22.394Z,19.40
2019-04-23T09:34:52.587Z,19.40
2019-04-23T09:37:26.819Z,19.40
2019-04-23T09:40:18.499Z,19.40
2019-04-23T09:42:52.823Z,19.40
2019-04-23T09:45:22.758Z,19.20
2019-04-23T09:48:01.966Z,19.30
2019-04-23T09:50:36.586Z,19.20
2019-04-23T09:53:21.790Z,19.20
2019-04-23T09:58:08.175Z,19.20
2019-04-23T10:00:42.032Z,19.20
2019-04-23T10:03:04.999Z,19.20
2019-04-23T10:05:31.113Z,19.20
2019-04-23T10:08:01.727Z,19.30
2019-04-23T10:10:20.762Z,19.50
2019-04-23T10:12:50.305Z,19.70
2019-04-23T10:15:24.989Z,19.80
2019-04-23T10:17:52.076Z,19.90
2019-04-23T10:20:22.563Z,19.90
2019-04-23T10:22:52.672Z,19.90
2019-04-23T10:25:22.895Z,20.00
2019-04-23T10:27:58.526Z,19.70
2019-04-23T10:30:23.734Z,19.70
2019-04-23T10:32:53.992Z,19.80
2019-04-23T10:35:37.903Z,19.90
2019-04-23T10:38:01.823Z,19.90
2019-04-23T10:40:30.287Z,20.00
2019-04-23T10:42:56.453Z,20.00
2019-04-23T10:45:53.994Z,19.90
2019-04-23T10:51:33.906Z,20.00
2019-04-23T10:59:06.423Z,20.00
2019-04-23T11:01:36.586Z,20.00
2019-04-23T11:04:22.574Z,20.00
2019-04-23T11:09:27.221Z,20.10
2019-04-23T11:11:56.622Z,20.10
2019-04-23T11:14:25.265Z,20.10
2019-04-23T11:19:25.529Z,20.10
2019-04-23T11:21:56.258Z,20.10
2019-04-23T11:29:38.698Z,19.90
2019-04-23T11:32:29.344Z,20.10
2019-04-23T11:34:53.353Z,20.20
2019-04-23T11:39:32.436Z,20.30
2019-04-23T11:42:04.796Z,20.30
2019-04-23T11:49:53.258Z,20.30
2019-04-23T11:51:05.130Z,20.20
2019-04-23T11:51:10.673Z,20.20
2019-04-23T11:52:11.582Z,20.20
2019-04-23T11:54:39.021Z,19.70
2019-04-23T11:59:44.221Z,19.50
2019-04-23T12:02:05.357Z,19.30
2019-04-23T12:05:11.665Z,19.20
2019-04-23T12:07:34.340Z,19.20
2019-04-23T12:12:53.892Z,19.20
2019-04-23T12:15:23.885Z,19.20
2019-04-23T12:18:03.583Z,19.30
2019-04-23T12:22:58.833Z,19.50
2019-04-23T12:25:27.973Z,19.80
2019-04-23T12:27:38.247Z,20.00
2019-04-23T12:30:27.558Z,20.20
2019-04-23T12:32:57.206Z,20.40
2019-04-23T12:38:04.069Z,20.50
2019-04-23T12:40:44.341Z,20.50
2019-04-23T12:45:37.483Z,20.50
2019-04-23T12:53:10.239Z,20.50
2019-04-23T12:55:40.029Z,20.60
2019-04-23T13:00:37.272Z,20.60
2019-04-23T13:03:08.511Z,20.60
2019-04-23T13:05:51.003Z,20.60
2019-04-23T13:10:58.551Z,20.60
2019-04-23T13:13:23.514Z,20.60
2019-04-23T13:15:47.990Z,20.50
2019-04-23T13:18:19.385Z,20.50
2019-04-23T13:20:41.809Z,20.50
2019-04-23T13:23:22.295Z,20.50
2019-04-23T13:26:16.086Z,20.60
2019-04-23T13:28:38.840Z,20.60
2019-04-23T13:31:12.468Z,20.70
2019-04-23T13:33:52.223Z,20.60
2019-04-23T13:36:17.703Z,20.50
2019-04-23T13:38:41.830Z,20.30
2019-04-23T13:43:42.611Z,20.50
2019-04-23T13:46:32.470Z,20.60
2019-04-23T13:48:42.008Z,20.70
2019-04-23T13:51:20.781Z,20.70
2019-04-23T13:53:53.396Z,20.70
2019-04-23T13:56:24.776Z,20.70
2019-04-23T13:58:59.697Z,20.70
2019-04-23T14:04:16.195Z,20.60
2019-04-23T14:06:35.054Z,20.70
2019-04-23T14:16:39.454Z,20.80
2019-04-23T14:19:16.501Z,20.90
2019-04-23T14:21:42.518Z,20.80
2019-04-23T14:26:41.648Z,21.00
2019-04-23T14:29:12.589Z,21.00
2019-04-23T14:31:50.279Z,21.10
2019-04-23T14:34:10.453Z,21.20
2019-04-23T14:36:52.593Z,21.20
2019-04-23T14:39:18.755Z,21.10
2019-04-23T14:41:56.508Z,21.10
2019-04-23T14:44:19.669Z,21.10
2019-04-23T14:49:26.099Z,21.20
2019-04-23T14:52:02.409Z,21.30
2019-04-23T14:55:02.325Z,21.30
2019-04-23T14:57:09.852Z,21.40
2019-04-23T14:59:19.468Z,21.40
2019-04-23T15:02:05.308Z,21.50
2019-04-23T15:04:49.621Z,21.60
2019-04-23T15:07:13.231Z,21.70
2019-04-23T15:14:46.410Z,21.70
2019-04-23T15:17:15.775Z,21.60
2019-04-23T15:22:16.765Z,21.60
2019-04-23T15:25:15.218Z,21.70
2019-04-23T15:28:00.108Z,21.80
2019-04-23T15:29:32.886Z,21.70
2019-04-23T15:32:20.229Z,21.70
2019-04-23T15:34:57.406Z,21.80
2019-04-23T15:37:32.558Z,21.80
2019-04-23T15:39:55.334Z,21.80
2019-04-23T15:42:26.425Z,21.80
2019-04-23T15:44:56.017Z,21.80
2019-04-23T15:47:26.715Z,21.90
2019-04-23T15:50:03.536Z,21.90
2019-04-23T15:52:35.207Z,22.00
2019-04-23T15:55:01.644Z,22.10
2019-04-23T15:57:44.929Z,22.00
2019-04-23T15:59:58.814Z,22.00
2019-04-23T16:02:01.430Z,22.00
2019-04-23T16:04:31.723Z,21.90
2019-04-23T16:07:02.452Z,21.80
2019-04-23T16:10:04.644Z,21.80
2019-04-23T16:12:25.363Z,21.80
2019-04-23T16:17:35.802Z,22.00
2019-04-23T16:20:21.655Z,22.00
2019-04-23T16:22:36.687Z,22.00
2019-04-23T16:25:12.853Z,21.90
2019-04-23T16:27:45.759Z,21.40
2019-04-23T16:30:15.919Z,21.10
2019-04-23T16:32:57.682Z,21.20
2019-04-23T16:38:12.833Z,21.60
2019-04-23T16:43:35.480Z,21.80
2019-04-23T16:45:34.378Z,21.90
2019-04-23T16:48:15.680Z,21.90
2019-04-23T16:50:58.096Z,22.00
2019-04-23T16:53:16.126Z,22.10
2019-04-23T16:55:52.151Z,22.10
2019-04-23T16:58:23.210Z,22.10
2019-04-23T17:00:51.593Z,22.10
2019-04-23T17:03:18.136Z,22.10
2019-04-23T17:05:51.731Z,22.10
2019-04-23T17:08:35.825Z,22.00
2019-04-23T17:10:55.460Z,21.90
2019-04-23T17:13:20.915Z,22.00
2019-04-23T17:15:58.101Z,22.00
2019-04-23T17:18:24.600Z,22.00
2019-04-23T17:20:56.304Z,21.90
2019-04-23T17:26:02.722Z,22.00
2019-04-23T17:31:18.794Z,22.00
2019-04-23T17:33:34.713Z,22.10
2019-04-23T17:36:36.312Z,22.20
2019-04-23T17:41:38.699Z,22.20
2019-04-23T17:44:24.187Z,22.10
2019-04-23T17:46:34.143Z,22.10
2019-04-23T17:49:10.858Z,22.10
2019-04-23T17:51:37.823Z,22.10
2019-04-23T17:59:11.747Z,22.10
2019-04-23T18:01:57.211Z,22.00
2019-04-23T18:04:20.813Z,22.00
2019-04-23T18:06:51.583Z,22.00
2019-04-23T18:09:26.213Z,22.00
2019-04-23T18:12:12.972Z,22.00
2019-04-23T18:14:31.108Z,22.00
2019-04-23T18:19:16.828Z,22.00
2019-04-23T18:24:57.767Z,22.00
2019-04-23T18:27:23.429Z,21.90
2019-04-23T18:30:02.864Z,21.90
2019-04-23T18:32:32.800Z,21.80
2019-04-23T18:35:15.454Z,21.70
2019-04-23T18:37:34.578Z,21.70
2019-04-23T18:40:00.237Z,21.70
2019-04-23T18:42:41.678Z,21.70
2019-04-23T18:45:14.461Z,21.70
2019-04-23T18:47:47.318Z,21.70
2019-04-23T18:50:15.642Z,21.70
2019-04-23T18:52:48.480Z,21.70
2019-04-23T18:55:18.869Z,21.70
2019-04-23T18:57:48.660Z,21.70
2019-04-23T19:00:17.054Z,21.70
2019-04-23T19:03:01.175Z,21.60
2019-04-23T19:05:41.548Z,21.60
2019-04-23T19:08:42.452Z,21.50
2019-04-23T19:10:50.605Z,21.50
2019-04-23T19:13:37.876Z,21.50
2019-04-23T19:16:00.612Z,21.50
2019-04-23T19:18:32.002Z,21.50
2019-04-23T19:23:32.233Z,21.50
2019-04-23T19:25:52.887Z,21.50
2019-04-23T19:31:16.537Z,21.30
2019-04-23T19:33:36.416Z,21.20
2019-04-23T19:36:14.226Z,21.00
2019-04-23T19:38:36.435Z,20.90
2019-04-23T19:41:19.569Z,20.80
2019-04-23T19:48:42.502Z,20.50
2019-04-23T19:54:01.786Z,20.60
2019-04-23T19:56:16.434Z,20.70
2019-04-23T19:58:46.754Z,20.80
2019-04-23T20:01:16.538Z,20.70
2019-04-23T20:03:50.028Z,20.70
2019-04-23T20:06:27.387Z,20.60
2019-04-23T20:13:50.698Z,20.40
2019-04-23T20:18:52.363Z,20.20
2019-04-23T20:21:25.760Z,20.10
2019-04-23T20:39:33.046Z,20.00
2019-04-23T20:44:37.269Z,20.00
2019-04-23T20:47:10.233Z,20.00
2019-04-23T20:54:43.130Z,19.90
2019-04-23T20:57:31.793Z,19.90
2019-04-23T21:00:00.131Z,20.00
2019-04-23T21:02:42.010Z,19.70
2019-04-23T21:05:10.210Z,19.70
2019-04-23T21:07:30.560Z,19.60
2019-04-23T21:10:08.867Z,19.70
2019-04-23T21:12:42.725Z,19.60
2019-04-23T21:15:05.391Z,19.60
2019-04-23T21:17:37.463Z,19.80
2019-04-23T21:20:10.167Z,19.90
2019-04-23T21:22:32.002Z,19.80
2019-04-23T21:25:00.296Z,20.00
2019-04-23T21:27:55.352Z,20.20
2019-04-23T21:30:03.322Z,20.10
2019-04-23T21:37:50.067Z,20.20
2019-04-23T21:42:58.977Z,20.10
2019-04-23T21:45:13.975Z,19.90
2019-04-23T21:47:54.886Z,19.70
2019-04-23T21:52:49.783Z,19.60
2019-04-23T21:55:20.770Z,19.40
2019-04-23T21:57:59.938Z,19.50
2019-04-23T22:00:19.475Z,19.60
2019-04-23T22:05:25.378Z,19.30
2019-04-23T22:07:56.642Z,19.40
2019-04-23T22:10:27.816Z,19.30
2019-04-23T22:13:09.519Z,19.30
2019-04-23T22:15:34.463Z,19.30
